TNCE/EUX METAR and TAF weather

Enter ICAO airport designator
Station Type Date Time Source
TNCE METAR 2019/12/08 16:55 UTC NOAA

TNCE 081655Z AUTO 08011KT 040V120 //// // ///////// 29/23 Q1015 RE//


Station Type Date Time Source
TNCE Decoded METAR 2019/12/08 16:55 UTC NOAA

Roosevelt Airport Saint Eustatius, Netherlands Antilles (TNCE) 17-29N 062-59W 39M
Dec 08, 2019 - 11:55 AM EST / 2019.12.08 1655 UTC
Wind: from the E (080 degrees) at 13 MPH (11 KT) (direction variable):0
Temperature: 84 F (29 C)
Dew Point: 73 F (23 C)
Relative Humidity: 70%
Pressure (altimeter): 29.97 in. Hg (1015 hPa)
ob: TNCE 081655Z AUTO 08011KT 040V120 //// // ///////// 29/23 Q1015 RE//
cycle: 17

Station Type Date Time Source
TNCE TAF UTC NOAA

Error!

Example: see airport list